createdAt,value
2022-08-02T00:00:39.134Z,20.60
2022-08-02T00:03:06.483Z,20.80
2022-08-02T00:05:33.878Z,20.80
2022-08-02T00:08:01.879Z,20.80
2022-08-02T00:10:30.503Z,20.80
2022-08-02T00:12:58.367Z,21.90
2022-08-02T00:15:26.156Z,21.30
2022-08-02T00:17:53.447Z,20.80
2022-08-02T00:20:20.931Z,20.80
2022-08-02T00:22:48.229Z,20.80
2022-08-02T00:25:15.525Z,20.80
2022-08-02T00:27:42.909Z,20.80
2022-08-02T00:30:10.656Z,20.70
2022-08-02T00:32:37.967Z,20.90
2022-08-02T00:35:05.744Z,20.70
2022-08-02T00:37:33.183Z,20.70
2022-08-02T00:40:02.219Z,20.70
2022-08-02T00:42:29.628Z,21.00
2022-08-02T00:44:58.843Z,20.70
2022-08-02T00:47:26.380Z,20.60
2022-08-02T00:49:53.674Z,20.60
2022-08-02T00:52:22.187Z,20.60
2022-08-02T00:54:50.063Z,20.60
2022-08-02T00:57:17.426Z,20.60
2022-08-02T00:59:44.821Z,20.60
2022-08-02T01:02:12.417Z,20.50
2022-08-02T01:04:40.167Z,20.50
2022-08-02T01:07:11.996Z,20.50
2022-08-02T01:09:45.030Z,20.50
2022-08-02T01:12:13.524Z,20.50
2022-08-02T01:14:43.525Z,20.50
2022-08-02T01:17:33.523Z,20.60
2022-08-02T01:20:19.779Z,20.60
2022-08-02T01:23:20.635Z,20.60
2022-08-02T01:26:03.372Z,20.60
2022-08-02T01:28:48.895Z,20.60
2022-08-02T01:31:27.740Z,20.60
2022-08-02T01:34:16.910Z,20.50
2022-08-02T01:36:53.605Z,20.60
2022-08-02T01:39:27.797Z,20.60
2022-08-02T01:42:01.221Z,20.60
2022-08-02T01:44:33.325Z,20.50
2022-08-02T01:47:04.666Z,20.50
2022-08-02T01:49:34.637Z,20.60
2022-08-02T01:52:21.714Z,20.50
2022-08-02T01:55:09.894Z,20.40
2022-08-02T01:57:50.535Z,20.40
2022-08-02T02:00:19.746Z,20.40
2022-08-02T02:02:49.261Z,20.40
2022-08-02T02:05:20.037Z,20.40
2022-08-02T02:07:51.192Z,20.40
2022-08-02T02:10:25.179Z,20.40
2022-08-02T02:12:53.525Z,20.40
2022-08-02T02:15:23.420Z,20.40
2022-08-02T02:18:12.859Z,20.40
2022-08-02T02:20:42.712Z,20.80
2022-08-02T02:23:11.447Z,20.40
2022-08-02T02:25:46.933Z,20.30
2022-08-02T02:28:29.000Z,20.40
2022-08-02T02:31:11.973Z,20.30
2022-08-02T02:34:02.517Z,20.30
2022-08-02T02:36:30.839Z,20.30
2022-08-02T02:39:02.157Z,20.30
2022-08-02T02:41:30.218Z,20.30
2022-08-02T02:44:01.659Z,20.30
2022-08-02T02:46:34.005Z,20.20
2022-08-02T02:49:02.040Z,20.20
2022-08-02T02:51:30.847Z,20.20
2022-08-02T02:54:30.518Z,20.20
2022-08-02T02:56:46.794Z,20.30
2022-08-02T02:59:15.423Z,20.30
2022-08-02T03:01:56.363Z,20.30
2022-08-02T03:04:56.143Z,20.20
2022-08-02T03:07:17.118Z,20.20
2022-08-02T03:09:44.978Z,20.20
2022-08-02T03:12:15.348Z,20.20
2022-08-02T03:14:49.199Z,20.20
2022-08-02T03:17:16.932Z,20.10
2022-08-02T03:19:45.568Z,20.10
2022-08-02T03:22:13.243Z,20.10
2022-08-02T03:24:40.799Z,20.10
2022-08-02T03:27:08.117Z,20.00
2022-08-02T03:29:35.368Z,20.00
2022-08-02T03:32:02.795Z,20.00
2022-08-02T03:34:30.144Z,20.00
2022-08-02T03:36:58.625Z,20.00
2022-08-02T03:39:27.122Z,20.00
2022-08-02T03:41:55.404Z,20.00
2022-08-02T03:44:24.265Z,20.00
2022-08-02T03:46:53.076Z,19.90
2022-08-02T03:49:21.205Z,19.90
2022-08-02T03:51:49.316Z,19.90
2022-08-02T03:54:18.813Z,19.80
2022-08-02T03:56:46.569Z,19.90
2022-08-02T03:59:15.180Z,19.90
2022-08-02T04:01:43.092Z,19.80
2022-08-02T04:04:10.465Z,19.80
2022-08-02T04:06:40.081Z,19.80
2022-08-02T04:09:10.004Z,19.80
2022-08-02T04:11:38.057Z,19.70
2022-08-02T04:14:11.100Z,19.70
2022-08-02T04:16:46.626Z,19.70
2022-08-02T04:19:29.316Z,19.70
2022-08-02T04:22:00.432Z,19.70
2022-08-02T04:24:32.213Z,19.60
2022-08-02T04:27:06.594Z,19.60
2022-08-02T04:29:49.155Z,19.60
2022-08-02T04:32:17.450Z,19.50
2022-08-02T04:35:17.696Z,19.50
2022-08-02T04:37:35.575Z,19.50
2022-08-02T04:40:03.168Z,19.50
2022-08-02T04:42:30.543Z,19.30
2022-08-02T04:44:58.538Z,19.50
2022-08-02T04:48:02.507Z,19.50
2022-08-02T04:50:13.316Z,19.50
2022-08-02T04:52:45.432Z,19.50
2022-08-02T04:55:13.247Z,19.60
2022-08-02T04:57:55.783Z,19.60
2022-08-02T05:00:24.164Z,19.60
2022-08-02T05:02:52.648Z,19.60
2022-08-02T05:05:25.562Z,19.60
2022-08-02T05:07:53.066Z,19.70
2022-08-02T05:10:21.119Z,19.80
2022-08-02T05:12:48.549Z,19.80
2022-08-02T05:15:19.560Z,19.80
2022-08-02T05:17:48.787Z,19.80
2022-08-02T05:20:17.291Z,19.80
2022-08-02T05:22:45.102Z,19.90
2022-08-02T05:25:12.772Z,19.90
2022-08-02T05:27:40.155Z,19.90
2022-08-02T05:30:08.309Z,19.80
2022-08-02T05:32:42.620Z,20.30
2022-08-02T05:35:10.058Z,19.90
2022-08-02T05:37:37.499Z,19.90
2022-08-02T05:40:05.608Z,19.80
2022-08-02T05:42:41.167Z,19.90
2022-08-02T05:45:09.370Z,19.90
2022-08-02T05:47:37.459Z,19.90
2022-08-02T05:50:07.293Z,19.90
2022-08-02T05:53:05.090Z,19.90
2022-08-02T05:55:47.862Z,19.90
2022-08-02T05:58:28.098Z,20.00
2022-08-02T06:00:56.621Z,20.00
2022-08-02T06:03:32.478Z,20.10
2022-08-02T06:06:05.230Z,20.10
2022-08-02T06:08:38.225Z,20.20
2022-08-02T06:11:10.094Z,20.30
2022-08-02T06:13:37.861Z,20.40
2022-08-02T06:16:06.068Z,20.40
2022-08-02T06:18:42.369Z,20.50
2022-08-02T06:22:34.576Z,20.50
2022-08-02T06:23:59.528Z,20.50
2022-08-02T06:26:28.301Z,20.60
2022-08-02T06:28:57.499Z,20.70
2022-08-02T06:31:25.146Z,20.60
2022-08-02T06:33:53.053Z,20.60
2022-08-02T06:36:39.387Z,20.50
2022-08-02T06:39:35.796Z,20.60
2022-08-02T06:42:12.272Z,20.70
2022-08-02T06:44:48.828Z,20.80
2022-08-02T06:47:18.303Z,20.90
2022-08-02T06:49:51.989Z,20.90
2022-08-02T06:52:33.468Z,20.90
2022-08-02T06:55:03.302Z,21.00
2022-08-02T06:57:31.484Z,21.00
2022-08-02T07:00:02.359Z,21.00
2022-08-02T07:02:30.865Z,21.10
2022-08-02T07:04:58.342Z,21.10
2022-08-02T07:07:26.621Z,21.10
2022-08-02T07:09:56.588Z,21.10
2022-08-02T07:12:29.903Z,21.20
2022-08-02T07:14:58.415Z,21.20
2022-08-02T07:17:25.908Z,21.30
2022-08-02T07:19:53.231Z,21.40
2022-08-02T07:22:23.264Z,21.30
2022-08-02T07:24:51.501Z,21.40
2022-08-02T07:27:20.105Z,21.40
2022-08-02T07:29:48.054Z,21.50
2022-08-02T07:32:20.873Z,21.50
2022-08-02T07:34:53.188Z,21.50
2022-08-02T07:37:35.305Z,21.60
2022-08-02T07:40:14.210Z,21.70
2022-08-02T07:42:49.129Z,21.80
2022-08-02T07:45:16.682Z,21.80
2022-08-02T07:47:45.174Z,21.80
2022-08-02T07:50:14.304Z,21.90
2022-08-02T07:52:42.576Z,21.90
2022-08-02T07:55:10.956Z,21.90
2022-08-02T07:57:45.437Z,21.90
2022-08-02T08:00:16.184Z,22.00
2022-08-02T08:02:44.599Z,22.00
2022-08-02T08:05:12.243Z,22.00
2022-08-02T08:07:39.953Z,22.00
2022-08-02T08:10:08.441Z,22.00
2022-08-02T08:12:36.079Z,22.00
2022-08-02T08:15:03.874Z,21.60
2022-08-02T08:17:31.237Z,22.00
2022-08-02T08:19:58.604Z,22.10
2022-08-02T08:22:25.931Z,22.10
2022-08-02T08:24:53.443Z,22.10
2022-08-02T08:27:22.645Z,22.10
2022-08-02T08:29:50.431Z,22.10
2022-08-02T08:32:18.817Z,22.20
2022-08-02T08:34:47.270Z,22.20
2022-08-02T08:37:18.071Z,22.30
2022-08-02T08:39:58.458Z,22.00
2022-08-02T08:42:27.746Z,22.40
2022-08-02T08:44:57.160Z,22.50
2022-08-02T08:47:41.532Z,22.50
2022-08-02T08:50:22.742Z,22.60
2022-08-02T08:53:01.829Z,22.70
2022-08-02T08:55:30.613Z,22.70
2022-08-02T08:58:00.348Z,22.90
2022-08-02T09:00:29.541Z,22.90
2022-08-02T09:02:57.136Z,22.90
2022-08-02T09:05:25.341Z,22.50
2022-08-02T09:07:53.401Z,22.90
2022-08-02T09:10:46.753Z,22.90
2022-08-02T09:13:38.189Z,22.90
2022-08-02T09:16:14.185Z,22.90
2022-08-02T09:18:47.684Z,23.00
2022-08-02T09:21:17.701Z,23.00
2022-08-02T09:23:47.408Z,23.10
2022-08-02T09:26:18.750Z,23.10
2022-08-02T09:28:50.066Z,23.10
2022-08-02T09:31:23.133Z,23.10
2022-08-02T09:33:59.226Z,23.20
2022-08-02T09:36:36.640Z,23.20
2022-08-02T09:39:06.451Z,23.20
2022-08-02T09:41:36.661Z,23.20
2022-08-02T09:44:07.083Z,23.20
2022-08-02T09:46:40.620Z,23.30
2022-08-02T09:49:13.453Z,23.20
2022-08-02T09:51:50.335Z,23.30
2022-08-02T09:54:24.108Z,23.30
2022-08-02T09:56:54.250Z,23.30
2022-08-02T09:59:25.017Z,23.40
2022-08-02T10:01:59.016Z,23.40
2022-08-02T10:04:34.336Z,23.50
2022-08-02T10:07:19.539Z,23.50
2022-08-02T10:09:49.498Z,23.80
2022-08-02T10:12:17.771Z,23.70
2022-08-02T10:14:46.106Z,23.80
2022-08-02T10:17:15.431Z,23.80
2022-08-02T10:20:03.428Z,23.80
2022-08-02T10:22:30.584Z,23.80
2022-08-02T10:24:58.061Z,23.80
2022-08-02T10:27:29.805Z,23.80
2022-08-02T10:30:03.109Z,23.70
2022-08-02T10:32:39.185Z,23.80
2022-08-02T10:35:25.933Z,23.80
2022-08-02T10:38:01.404Z,23.90
2022-08-02T10:40:45.397Z,23.90
2022-08-02T10:43:14.187Z,24.00
2022-08-02T10:45:41.542Z,24.00
2022-08-02T10:48:14.736Z,24.10
2022-08-02T10:50:50.803Z,24.20
2022-08-02T10:53:32.502Z,24.20
2022-08-02T10:56:03.634Z,24.20
2022-08-02T10:58:32.585Z,24.20
2022-08-02T11:01:26.889Z,24.30
2022-08-02T11:04:10.072Z,24.30
2022-08-02T11:07:18.276Z,24.40
2022-08-02T11:09:46.020Z,24.50
2022-08-02T11:12:18.939Z,24.50
2022-08-02T11:15:00.082Z,24.50
2022-08-02T11:17:38.233Z,24.60
2022-08-02T11:20:12.078Z,24.70
2022-08-02T11:22:40.685Z,24.70
2022-08-02T11:25:25.645Z,24.70
2022-08-02T11:27:55.910Z,24.70
2022-08-02T11:30:26.786Z,24.70
2022-08-02T11:32:58.679Z,24.70
2022-08-02T11:35:52.429Z,24.70
2022-08-02T11:38:21.265Z,24.70
2022-08-02T11:40:49.492Z,24.70
2022-08-02T11:43:27.468Z,24.70
2022-08-02T11:45:56.264Z,24.70
2022-08-02T11:48:49.834Z,24.70
2022-08-02T11:51:18.935Z,24.70
2022-08-02T11:53:52.093Z,24.80
2022-08-02T11:56:28.420Z,24.80
2022-08-02T11:59:07.477Z,24.80
2022-08-02T12:01:45.414Z,24.70
2022-08-02T12:04:19.173Z,24.60
2022-08-02T12:06:57.451Z,24.40
2022-08-02T12:09:27.215Z,24.70
2022-08-02T12:11:55.618Z,24.70
2022-08-02T12:14:25.115Z,24.70
2022-08-02T12:17:13.873Z,24.60
2022-08-02T12:19:45.476Z,24.70
2022-08-02T12:22:18.153Z,24.80
2022-08-02T12:24:57.188Z,24.80
2022-08-02T12:27:40.523Z,24.80
2022-08-02T12:30:13.110Z,24.80
2022-08-02T12:32:41.211Z,24.90
2022-08-02T12:35:14.191Z,25.10
2022-08-02T12:37:53.300Z,25.00
2022-08-02T12:40:31.914Z,24.90
2022-08-02T12:43:00.895Z,24.90
2022-08-02T12:45:40.859Z,24.90
2022-08-02T12:48:10.055Z,24.90
2022-08-02T12:50:38.273Z,24.90
2022-08-02T12:53:10.456Z,24.90
2022-08-02T12:56:01.956Z,24.90
2022-08-02T12:58:31.843Z,25.00
2022-08-02T13:01:01.477Z,25.10
2022-08-02T13:04:11.578Z,25.20
2022-08-02T13:06:40.910Z,25.30
2022-08-02T13:09:16.900Z,25.30
2022-08-02T13:11:44.663Z,25.20
2022-08-02T13:14:14.110Z,25.20
2022-08-02T13:16:42.885Z,25.20
2022-08-02T13:19:10.429Z,25.30
2022-08-02T13:21:41.693Z,25.40
2022-08-02T13:24:55.660Z,25.40
2022-08-02T13:27:26.199Z,25.50
2022-08-02T13:29:59.897Z,25.60
2022-08-02T13:32:29.145Z,25.70
2022-08-02T13:34:57.924Z,25.70
2022-08-02T13:37:26.039Z,25.80
2022-08-02T13:40:18.858Z,25.80
2022-08-02T13:42:41.796Z,25.70
2022-08-02T13:45:12.882Z,25.60
2022-08-02T13:48:04.666Z,25.60
2022-08-02T13:50:32.641Z,25.60
2022-08-02T13:52:59.994Z,25.70
2022-08-02T13:55:28.179Z,25.80
2022-08-02T13:57:55.737Z,25.80
2022-08-02T14:00:35.555Z,25.90
2022-08-02T14:03:07.463Z,26.00
2022-08-02T14:05:47.452Z,26.10
2022-08-02T14:08:20.306Z,26.10
2022-08-02T14:10:48.962Z,26.00
2022-08-02T14:13:17.218Z,25.90
2022-08-02T14:15:44.895Z,25.90
2022-08-02T14:18:12.548Z,25.80
2022-08-02T14:20:39.843Z,25.80
2022-08-02T14:23:07.248Z,25.80
2022-08-02T14:25:34.622Z,25.70
2022-08-02T14:28:02.570Z,25.60
2022-08-02T14:30:30.245Z,25.60
2022-08-02T14:32:57.624Z,25.60
2022-08-02T14:35:25.224Z,25.50
2022-08-02T14:37:52.670Z,25.50
2022-08-02T14:40:30.674Z,25.40
2022-08-02T14:43:03.125Z,25.30
2022-08-02T14:45:40.179Z,25.30
2022-08-02T14:48:12.486Z,25.30
2022-08-02T14:50:40.308Z,25.20
2022-08-02T14:53:12.666Z,25.20
2022-08-02T14:55:41.318Z,25.60
2022-08-02T14:58:09.513Z,25.20
2022-08-02T15:00:40.532Z,25.20
2022-08-02T15:03:09.667Z,25.20
2022-08-02T15:05:38.006Z,25.20
2022-08-02T15:08:06.128Z,25.30
2022-08-02T15:10:33.454Z,25.40
2022-08-02T15:13:00.703Z,25.40
2022-08-02T15:15:28.458Z,25.50
2022-08-02T15:17:55.786Z,25.50
2022-08-02T15:20:25.063Z,25.50
2022-08-02T15:22:53.862Z,25.40
2022-08-02T15:25:22.124Z,25.30
2022-08-02T15:27:49.552Z,25.40
2022-08-02T15:30:16.957Z,25.40
2022-08-02T15:32:52.529Z,25.50
2022-08-02T15:35:21.499Z,25.40
2022-08-02T15:37:48.835Z,25.50
2022-08-02T15:40:16.218Z,25.50
2022-08-02T15:42:46.523Z,25.50
2022-08-02T15:45:15.339Z,25.30
2022-08-02T15:47:48.087Z,25.50
2022-08-02T15:50:19.302Z,25.50
2022-08-02T15:52:46.778Z,25.50
2022-08-02T15:55:14.400Z,25.50
2022-08-02T15:57:41.881Z,25.60
2022-08-02T16:00:17.883Z,25.60
2022-08-02T16:02:47.513Z,25.50
2022-08-02T16:05:17.907Z,25.50
2022-08-02T16:07:46.201Z,25.50
2022-08-02T16:10:14.729Z,25.40
2022-08-02T16:12:42.195Z,25.30
2022-08-02T16:15:09.764Z,25.30
2022-08-02T16:17:48.693Z,25.30
2022-08-02T16:20:21.385Z,25.30
2022-08-02T16:22:48.664Z,25.30
2022-08-02T16:25:19.296Z,25.30
2022-08-02T16:28:06.816Z,25.20
2022-08-02T16:30:34.088Z,25.20
2022-08-02T16:33:01.766Z,25.20
2022-08-02T16:35:29.172Z,25.10
2022-08-02T16:37:57.644Z,25.10
2022-08-02T16:40:25.041Z,25.10
2022-08-02T16:42:52.424Z,25.10
2022-08-02T16:45:22.418Z,25.10
2022-08-02T16:47:55.147Z,25.10
2022-08-02T16:50:28.044Z,25.10
2022-08-02T16:52:59.171Z,25.20
2022-08-02T16:55:31.530Z,25.20
2022-08-02T16:58:01.065Z,25.20
2022-08-02T17:00:34.215Z,25.30
2022-08-02T17:03:13.578Z,25.30
2022-08-02T17:05:56.615Z,25.30
2022-08-02T17:08:31.831Z,25.30
2022-08-02T17:11:03.099Z,25.40
2022-08-02T17:13:31.378Z,25.40
2022-08-02T17:18:49.483Z,25.30
2022-08-02T17:21:18.214Z,25.30
2022-08-02T17:24:04.292Z,25.30
2022-08-02T17:26:33.582Z,25.30
2022-08-02T17:29:15.811Z,25.30
2022-08-02T17:32:05.397Z,25.30
2022-08-02T17:34:35.767Z,25.30
2022-08-02T17:37:06.097Z,25.30
2022-08-02T17:39:44.279Z,25.30
2022-08-02T17:42:24.107Z,25.30
2022-08-02T17:44:53.706Z,25.20
2022-08-02T17:47:21.880Z,25.10
2022-08-02T17:49:52.866Z,25.10
2022-08-02T17:52:49.911Z,25.10
2022-08-02T17:55:12.849Z,25.00
2022-08-02T17:57:56.036Z,24.90
2022-08-02T18:00:35.365Z,24.90
2022-08-02T18:03:06.203Z,24.80
2022-08-02T18:05:39.858Z,24.70
2022-08-02T18:08:18.341Z,24.50
2022-08-02T18:10:48.774Z,24.60
2022-08-02T18:13:16.060Z,24.60
2022-08-02T18:15:45.447Z,24.60
2022-08-02T18:18:14.401Z,24.60
2022-08-02T18:20:44.853Z,24.50
2022-08-02T18:23:13.509Z,24.30
2022-08-02T18:25:43.960Z,24.50
2022-08-02T18:28:14.369Z,24.50
2022-08-02T18:30:43.339Z,24.40
2022-08-02T18:33:57.394Z,24.40
2022-08-02T18:35:58.264Z,24.40
2022-08-02T18:39:24.192Z,24.30
2022-08-02T18:42:30.447Z,24.30
2022-08-02T18:45:19.766Z,24.20
2022-08-02T18:47:54.870Z,24.20
2022-08-02T18:50:24.112Z,24.20
2022-08-02T18:52:57.642Z,24.10
2022-08-02T18:56:03.318Z,24.10
2022-08-02T18:58:19.655Z,24.00
2022-08-02T19:00:51.815Z,24.00
2022-08-02T19:03:22.395Z,23.90
2022-08-02T19:09:54.505Z,23.80
2022-08-02T19:12:51.812Z,23.80
2022-08-02T19:15:19.254Z,23.70
2022-08-02T19:17:55.090Z,23.60
2022-08-02T19:20:25.819Z,23.60
2022-08-02T19:22:53.686Z,23.50
2022-08-02T19:25:27.934Z,23.50
2022-08-02T19:27:55.767Z,23.40
2022-08-02T19:30:25.689Z,23.40
2022-08-02T19:36:01.400Z,23.30
2022-08-02T19:38:28.111Z,23.30
2022-08-02T19:40:56.267Z,23.30
2022-08-02T19:44:24.047Z,23.20
2022-08-02T19:46:15.794Z,23.10
2022-08-02T19:48:44.169Z,23.10
2022-08-02T19:51:13.766Z,23.00
2022-08-02T19:53:47.110Z,23.00
2022-08-02T19:56:25.003Z,22.90
2022-08-02T19:58:54.615Z,22.90
2022-08-02T20:01:36.703Z,22.80
2022-08-02T20:04:06.701Z,22.70
2022-08-02T20:06:34.023Z,22.70
2022-08-02T20:09:02.218Z,22.70
2022-08-02T20:11:34.885Z,22.60
2022-08-02T20:14:07.171Z,22.60
2022-08-02T20:16:35.616Z,22.80
2022-08-02T20:19:07.687Z,22.50
2022-08-02T20:21:37.203Z,22.40
2022-08-02T20:24:11.930Z,22.40
2022-08-02T20:29:43.563Z,22.40
2022-08-02T20:32:22.846Z,22.30
2022-08-02T20:34:50.948Z,22.30
2022-08-02T20:38:00.430Z,22.20
2022-08-02T20:40:08.515Z,22.20
2022-08-02T20:42:36.443Z,22.20
2022-08-02T20:45:05.610Z,22.20
2022-08-02T20:47:39.346Z,22.20
2022-08-02T20:50:42.984Z,22.10
2022-08-02T20:53:23.983Z,22.10
2022-08-02T20:55:55.237Z,22.10
2022-08-02T20:58:27.048Z,22.00
2022-08-02T21:00:59.222Z,22.00
2022-08-02T21:03:38.681Z,22.00
2022-08-02T21:06:08.937Z,21.90
2022-08-02T21:08:38.677Z,21.90
2022-08-02T21:11:09.041Z,21.80
2022-08-02T21:13:46.799Z,21.90
2022-08-02T21:16:25.080Z,21.80
2022-08-02T21:18:59.775Z,21.80
2022-08-02T21:21:29.722Z,21.70
2022-08-02T21:24:01.437Z,21.70
2022-08-02T21:26:31.299Z,21.70
2022-08-02T21:29:03.895Z,21.70
2022-08-02T21:31:36.646Z,21.60
2022-08-02T21:34:21.806Z,21.60
2022-08-02T21:36:50.529Z,21.60
2022-08-02T21:39:18.968Z,21.60
2022-08-02T21:41:47.964Z,21.50
2022-08-02T21:44:17.711Z,21.50
2022-08-02T21:46:48.903Z,21.30
2022-08-02T21:49:27.039Z,21.50
2022-08-02T21:52:08.595Z,21.40
2022-08-02T21:54:38.992Z,21.40
2022-08-02T21:57:15.235Z,21.30
2022-08-02T21:59:45.239Z,21.40
2022-08-02T22:02:14.026Z,21.30
2022-08-02T22:04:42.384Z,21.30
2022-08-02T22:07:24.057Z,21.30
2022-08-02T22:09:53.701Z,21.30
2022-08-02T22:12:25.870Z,21.30
2022-08-02T22:14:55.740Z,21.20
2022-08-02T22:17:51.453Z,21.20
2022-08-02T22:20:19.964Z,20.00
2022-08-02T22:22:52.443Z,21.20
2022-08-02T22:25:27.066Z,21.20
2022-08-02T22:28:37.186Z,21.20
2022-08-02T22:30:53.206Z,21.20
2022-08-02T22:33:42.166Z,21.10
2022-08-02T22:39:04.227Z,21.10
2022-08-02T22:42:06.615Z,21.10
2022-08-02T22:44:33.853Z,21.00
2022-08-02T22:47:13.911Z,21.00
2022-08-02T22:49:51.863Z,21.00
2022-08-02T22:52:23.826Z,19.60
2022-08-02T22:54:51.438Z,20.90
2022-08-02T22:57:30.099Z,20.90
2022-08-02T22:58:51.465Z,25.40
2022-08-02T22:58:59.506Z,23.40
2022-08-02T22:59:07.384Z,22.40
2022-08-02T23:00:00.678Z,20.90
2022-08-02T23:02:28.280Z,20.80
2022-08-02T23:04:57.702Z,20.70
2022-08-02T23:07:25.079Z,20.70
2022-08-02T23:09:52.594Z,20.80
2022-08-02T23:12:20.580Z,20.70
2022-08-02T23:14:49.360Z,20.80
2022-08-02T23:17:39.130Z,20.70
2022-08-02T23:20:11.842Z,20.50
2022-08-02T23:22:42.473Z,20.50
2022-08-02T23:25:10.592Z,20.60
2022-08-02T23:27:38.511Z,20.50
2022-08-02T23:30:06.756Z,20.40
2022-08-02T23:32:36.485Z,20.40
2022-08-02T23:35:05.075Z,20.30
2022-08-02T23:38:00.406Z,20.30
2022-08-02T23:40:39.105Z,20.30
2022-08-02T23:43:13.813Z,20.30
2022-08-02T23:45:46.558Z,20.20
2022-08-02T23:48:15.383Z,20.20
2022-08-02T23:50:42.810Z,20.10
2022-08-02T23:53:10.391Z,20.10
2022-08-02T23:55:37.769Z,20.10
2022-08-02T23:58:05.274Z,20.10
